Time,TemperatureF,DewpointF,PressureIn,WindDirection,WindDirectionDegrees,WindSpeedMPH,WindSpeedGustMPH,Humidity,HourlyPrecipIn,Conditions,Clouds,dailyrainin,SoftwareType,DateUTC
2013-04-27 00:01:00,64.0,35.0,28.06,NW,312,7.0,14.0,34,0.00,,,0.00,,2013-04-27 07:01:00,
2013-04-27 00:11:00,64.0,35.0,28.06,NW,312,7.0,14.0,34,0.00,,,0.00,,2013-04-27 07:11:00,
2013-04-27 00:21:00,64.0,36.0,28.06,WNW,287,6.0,11.0,35,0.00,,,0.00,,2013-04-27 07:21:00,
2013-04-27 00:31:00,64.0,36.0,28.06,WNW,287,6.0,11.0,35,0.00,,,0.00,,2013-04-27 07:31:00,
2013-04-27 00:41:00,64.0,36.0,28.06,WNW,287,6.0,11.0,35,0.00,,,0.00,,2013-04-27 07:41:00,
2013-04-27 00:52:00,61.0,35.0,28.06,West,276,4.0,8.0,38,0.00,,,0.00,,2013-04-27 07:52:00,
2013-04-27 01:01:00,60.0,36.0,28.05,WNW,298,4.0,8.0,40,0.00,,,0.00,,2013-04-27 08:01:00,
2013-04-27 01:11:00,60.0,36.0,28.05,WNW,298,4.0,8.0,40,0.00,,,0.00,,2013-04-27 08:11:00,
2013-04-27 01:21:00,60.0,36.0,28.04,WNW,297,5.0,9.0,41,0.00,,,0.00,,2013-04-27 08:21:00,
2013-04-27 01:33:00,60.0,36.0,28.04,West,269,4.0,9.0,41,0.00,,,0.00,,2013-04-27 08:33:00,
2013-04-27 01:41:00,60.0,36.0,28.04,West,269,4.0,9.0,41,0.00,,,0.00,,2013-04-27 08:41:00,
2013-04-27 01:52:00,60.0,36.0,28.04,WNW,302,5.0,8.0,40,0.00,,,0.00,,2013-04-27 08:52:00,
2013-04-27 02:01:00,59.0,36.0,28.03,WNW,293,5.0,8.0,42,0.00,,,0.00,,2013-04-27 09:01:00,
2013-04-27 02:11:00,59.0,36.0,28.03,WNW,293,5.0,8.0,42,0.00,,,0.00,,2013-04-27 09:11:00,
2013-04-27 02:21:00,59.0,36.0,28.03,WNW,298,6.0,9.0,42,0.00,,,0.00,,2013-04-27 09:21:00,
2013-04-27 02:33:00,59.0,36.0,28.03,WNW,294,5.0,10.0,42,0.00,,,0.00,,2013-04-27 09:33:00,
2013-04-27 02:42:00,59.0,36.0,28.03,WNW,294,5.0,10.0,42,0.00,,,0.00,,2013-04-27 09:42:00,
2013-04-27 02:53:00,59.0,36.0,28.03,WNW,290,4.0,9.0,42,0.00,,,0.00,,2013-04-27 09:53:00,
2013-04-27 03:02:00,58.0,36.0,28.03,SE,136,1.0,5.0,44,0.00,,,0.00,,2013-04-27 10:02:00,
2013-04-27 03:12:00,58.0,36.0,28.03,SE,136,1.0,5.0,44,0.00,,,0.00,,2013-04-27 10:12:00,
2013-04-27 03:22:00,56.0,36.0,28.02,SE,138,0.0,2.0,47,0.00,,,0.00,,2013-04-27 10:22:00,
2013-04-27 03:32:00,56.0,36.0,28.02,SE,138,0.0,2.0,47,0.00,,,0.00,,2013-04-27 10:32:00,
2013-04-27 03:42:00,56.0,36.0,28.02,SE,138,0.0,2.0,47,0.00,,,0.00,,2013-04-27 10:42:00,
2013-04-27 03:52:00,55.0,36.0,28.06,SE,138,1.0,1.0,48,0.00,,,0.00,,2013-04-27 10:52:00,
2013-04-27 04:02:00,52.0,36.0,28.03,SSW,198,0.0,1.0,54,0.00,,,0.00,,2013-04-27 11:02:00,
2013-04-27 04:11:00,52.0,36.0,28.03,SSW,198,0.0,1.0,54,0.00,,,0.00,,2013-04-27 11:11:00,
2013-04-27 04:21:00,52.0,36.0,28.03,SSW,198,0.0,1.0,54,0.00,,,0.00,,2013-04-27 11:21:00,
2013-04-27 04:31:00,51.0,36.0,28.03,SSE,152,0.0,1.0,56,0.00,,,0.00,,2013-04-27 11:31:00,
2013-04-27 04:41:00,51.0,36.0,28.03,SSE,152,0.0,1.0,56,0.00,,,0.00,,2013-04-27 11:41:00,
2013-04-27 04:51:00,52.0,37.0,28.03,SE,136,0.0,1.0,56,0.00,,,0.00,,2013-04-27 11:51:00,
2013-04-27 05:01:00,50.0,36.0,28.03,SE,135,0.0,1.0,58,0.00,,,0.00,,2013-04-27 12:01:00,
2013-04-27 05:11:00,50.0,36.0,28.03,SE,135,0.0,1.0,58,0.00,,,0.00,,2013-04-27 12:11:00,
2013-04-27 05:21:00,49.0,35.0,28.02,SSW,211,0.0,1.0,59,0.00,,,0.00,,2013-04-27 12:21:00,
2013-04-27 05:32:00,49.0,36.0,28.02,SSE,155,0.0,1.0,61,0.00,,,0.00,,2013-04-27 12:32:00,
2013-04-27 05:42:00,49.0,36.0,28.02,SSE,155,0.0,1.0,61,0.00,,,0.00,,2013-04-27 12:42:00,
2013-04-27 05:52:00,48.0,36.0,28.02,SSE,157,0.0,1.0,63,0.00,,,0.00,,2013-04-27 12:52:00,
2013-04-27 06:01:00,48.0,36.0,28.02,ESE,122,0.0,2.0,63,0.00,,,0.00,,2013-04-27 13:01:00,
2013-04-27 06:11:00,48.0,36.0,28.02,ESE,122,0.0,2.0,63,0.00,,,0.00,,2013-04-27 13:11:00,
2013-04-27 06:21:00,48.0,36.0,28.02,SSW,205,0.0,1.0,63,0.00,,,0.00,,2013-04-27 13:21:00,
2013-04-27 06:32:00,47.0,35.0,28.02,South,190,0.0,2.0,63,0.00,,,0.00,,2013-04-27 13:32:00,
2013-04-27 06:41:00,47.0,35.0,28.02,South,190,0.0,2.0,63,0.00,,,0.00,,2013-04-27 13:41:00,
2013-04-27 06:52:00,47.0,36.0,28.03,SSW,212,0.0,1.0,65,0.00,,,0.00,,2013-04-27 13:52:00,
2013-04-27 07:02:00,47.0,35.0,28.03,SSW,195,0.0,3.0,63,0.00,,,0.00,,2013-04-27 14:02:00,
2013-04-27 07:11:00,47.0,35.0,28.03,SSW,195,0.0,3.0,63,0.00,,,0.00,,2013-04-27 14:11:00,
2013-04-27 07:21:00,49.0,37.0,28.03,SE,139,0.0,1.0,62,0.00,,,0.00,,2013-04-27 14:21:00,
2013-04-27 07:31:00,50.0,37.0,28.02,SE,140,0.0,1.0,61,0.00,,,0.00,,2013-04-27 14:31:00,
2013-04-27 07:41:00,50.0,37.0,28.02,SE,140,0.0,1.0,61,0.00,,,0.00,,2013-04-27 14:41:00,
2013-04-27 07:52:00,50.0,38.0,28.02,SE,127,0.0,2.0,64,0.00,,,0.00,,2013-04-27 14:52:00,
2013-04-27 08:01:00,50.0,38.0,28.03,SE,127,0.0,1.0,63,0.00,,,0.00,,2013-04-27 15:01:00,
2013-04-27 08:11:00,50.0,38.0,28.03,SE,127,0.0,1.0,63,0.00,,,0.00,,2013-04-27 15:11:00,
2013-04-27 08:21:00,52.0,39.0,28.03,SE,127,0.0,1.0,61,0.00,,,0.00,,2013-04-27 15:21:00,
2013-04-27 08:33:00,53.0,40.0,28.03,SE,127,0.0,1.0,61,0.00,,,0.00,,2013-04-27 15:33:00,
2013-04-27 08:42:00,53.0,40.0,28.03,SE,127,0.0,1.0,61,0.00,,,0.00,,2013-04-27 15:42:00,
2013-04-27 08:52:00,54.0,41.0,28.02,ESE,105,0.0,2.0,61,0.00,,,0.00,,2013-04-27 15:52:00,
2013-04-27 09:02:00,54.0,40.0,28.02,East,85,0.0,1.0,59,0.00,,,0.00,,2013-04-27 16:02:00,
2013-04-27 09:13:00,54.0,40.0,28.02,East,85,0.0,1.0,59,0.00,,,0.00,,2013-04-27 16:13:00,
2013-04-27 09:22:00,55.0,41.0,28.01,ENE,75,0.0,1.0,58,0.00,,,0.00,,2013-04-27 16:22:00,
2013-04-27 09:32:00,57.0,43.0,28.00,East,94,0.0,2.0,59,0.00,,,0.00,,2013-04-27 16:32:00,
2013-04-27 09:42:00,57.0,43.0,28.00,East,94,0.0,2.0,59,0.00,,,0.00,,2013-04-27 16:42:00,
2013-04-27 09:52:00,59.0,43.0,28.00,SE,124,0.0,2.0,55,0.00,,,0.00,,2013-04-27 16:52:00,
2013-04-27 10:02:00,61.0,41.0,28.00,NNW,342,1.0,5.0,48,0.00,,,0.00,,2013-04-27 17:02:00,
2013-04-27 10:11:00,61.0,41.0,28.00,NNW,342,1.0,5.0,48,0.00,,,0.00,,2013-04-27 17:11:00,
2013-04-27 10:22:00,62.0,40.0,27.99,NNE,23,1.0,2.0,45,0.00,,,0.00,,2013-04-27 17:22:00,
2013-04-27 10:31:00,64.0,40.0,27.98,ESE,122,0.0,2.0,42,0.00,,,0.00,,2013-04-27 17:31:00,
2013-04-27 10:42:00,64.0,40.0,27.98,ESE,122,0.0,2.0,42,0.00,,,0.00,,2013-04-27 17:42:00,
2013-04-27 10:52:00,66.0,39.0,27.98,ESE,115,0.0,3.0,37,0.00,,,0.00,,2013-04-27 17:52:00,
2013-04-27 11:02:00,67.0,38.0,27.98,ESE,118,0.0,3.0,35,0.00,,,0.00,,2013-04-27 18:02:00,
2013-04-27 11:11:00,67.0,38.0,27.98,ESE,118,0.0,3.0,35,0.00,,,0.00,,2013-04-27 18:11:00,
2013-04-27 11:21:00,68.0,39.0,27.98,NNE,12,1.0,5.0,34,0.00,,,0.00,,2013-04-27 18:21:00,
2013-04-27 11:32:00,69.0,38.0,27.99,East,84,2.0,6.0,32,0.00,,,0.00,,2013-04-27 18:32:00,
2013-04-27 11:41:00,69.0,38.0,27.99,East,84,2.0,6.0,32,0.00,,,0.00,,2013-04-27 18:41:00,
2013-04-27 11:51:00,69.0,36.0,27.99,WNW,300,18.0,30.0,30,0.00,,,0.00,,2013-04-27 18:51:00,
2013-04-27 12:01:00,67.0,38.0,27.99,NW,319,23.0,34.0,34,0.00,,,0.00,,2013-04-27 19:01:00,
2013-04-27 12:11:00,67.0,38.0,27.99,NW,319,23.0,34.0,34,0.00,,,0.00,,2013-04-27 19:11:00,
2013-04-27 12:21:00,66.0,38.0,28.00,WNW,301,17.0,33.0,36,0.00,,,0.00,,2013-04-27 19:21:00,
2013-04-27 12:32:00,66.0,39.0,27.99,WNW,302,12.0,26.0,37,0.00,,,0.00,,2013-04-27 19:32:00,
2013-04-27 12:52:00,65.0,38.0,27.99,West,271,13.0,22.0,37,0.00,,,0.00,,2013-04-27 19:52:00,
2013-04-27 13:02:00,65.0,38.0,27.99,NW,323,16.0,30.0,37,0.00,,,0.00,,2013-04-27 20:02:00,
2013-04-27 13:11:00,65.0,38.0,27.99,NW,323,16.0,30.0,37,0.00,,,0.00,,2013-04-27 20:11:00,
2013-04-27 13:21:00,65.0,39.0,27.99,NW,304,13.0,24.0,38,0.00,,,0.00,,2013-04-27 20:21:00,
2013-04-27 13:32:00,65.0,39.0,27.99,NW,307,15.0,21.0,38,0.00,,,0.00,,2013-04-27 20:32:00,
2013-04-27 13:42:00,65.0,39.0,27.99,NW,307,15.0,21.0,38,0.00,,,0.00,,2013-04-27 20:42:00,
2013-04-27 13:52:00,65.0,39.0,27.98,NW,311,14.0,22.0,38,0.00,,,0.00,,2013-04-27 20:52:00,
2013-04-27 14:02:00,66.0,40.0,27.98,West,276,12.0,24.0,38,0.00,,,0.00,,2013-04-27 21:02:00,
2013-04-27 14:11:00,66.0,40.0,27.98,West,276,12.0,24.0,38,0.00,,,0.00,,2013-04-27 21:11:00,
2013-04-27 14:21:00,66.0,40.0,27.98,WNW,303,10.0,19.0,38,0.00,,,0.00,,2013-04-27 21:21:00,
2013-04-27 14:32:00,66.0,39.0,27.97,NW,321,12.0,23.0,37,0.00,,,0.00,,2013-04-27 21:32:00,
2013-04-27 14:42:00,66.0,39.0,27.97,NW,321,12.0,23.0,37,0.00,,,0.00,,2013-04-27 21:42:00,
2013-04-27 14:53:00,66.0,38.0,27.97,NW,319,14.0,24.0,36,0.00,,,0.00,,2013-04-27 21:53:00,
2013-04-27 15:02:00,66.0,38.0,27.97,WNW,283,10.0,22.0,36,0.00,,,0.00,,2013-04-27 22:02:00,
2013-04-27 15:12:00,66.0,38.0,27.97,WNW,283,10.0,22.0,36,0.00,,,0.00,,2013-04-27 22:12:00,
2013-04-27 15:22:00,66.0,38.0,27.97,WNW,293,13.0,23.0,36,0.00,,,0.00,,2013-04-27 22:22:00,
2013-04-27 15:32:00,66.0,40.0,27.97,NW,304,12.0,23.0,38,0.00,,,0.00,,2013-04-27 22:32:00,
2013-04-27 15:42:00,66.0,40.0,27.97,NW,304,12.0,23.0,38,0.00,,,0.00,,2013-04-27 22:42:00,
2013-04-27 15:52:00,66.0,39.0,27.97,WNW,293,10.0,24.0,37,0.00,,,0.00,,2013-04-27 22:52:00,
2013-04-27 16:02:00,66.0,39.0,27.97,NNW,330,10.0,22.0,37,0.00,,,0.00,,2013-04-27 23:02:00,
2013-04-27 16:11:00,66.0,39.0,27.97,NNW,330,10.0,22.0,37,0.00,,,0.00,,2013-04-27 23:11:00,
2013-04-27 16:22:00,65.0,38.0,27.97,NW,311,13.0,23.0,37,0.00,,,0.00,,2013-04-27 23:22:00,
2013-04-27 16:32:00,65.0,39.0,27.96,WNW,285,11.0,20.0,38,0.00,,,0.00,,2013-04-27 23:32:00,
2013-04-27 16:42:00,65.0,39.0,27.96,WNW,285,11.0,20.0,38,0.00,,,0.00,,2013-04-27 23:42:00,
2013-04-27 16:52:00,65.0,39.0,27.96,NW,307,12.0,20.0,39,0.00,,,0.00,,2013-04-27 23:52:00,
2013-04-27 17:01:00,65.0,39.0,27.96,NW,311,9.0,20.0,39,0.00,,,0.00,,2013-04-28 00:01:00,
2013-04-27 17:11:00,65.0,39.0,27.96,NW,311,9.0,20.0,39,0.00,,,0.00,,2013-04-28 00:11:00,
2013-04-27 17:21:00,65.0,40.0,27.96,NW,311,9.0,21.0,40,0.00,,,0.00,,2013-04-28 00:21:00,
2013-04-27 17:31:00,64.0,39.0,27.96,WNW,293,11.0,20.0,40,0.00,,,0.00,,2013-04-28 00:31:00,
2013-04-27 17:42:00,64.0,39.0,27.96,WNW,293,11.0,20.0,40,0.00,,,0.00,,2013-04-28 00:42:00,
2013-04-27 17:51:00,63.0,40.0,27.97,NW,304,12.0,20.0,42,0.00,,,0.00,,2013-04-28 00:51:00,
2013-04-27 18:01:00,62.0,39.0,27.96,WNW,291,8.0,16.0,43,0.00,,,0.00,,2013-04-28 01:01:00,
2013-04-27 18:11:00,62.0,39.0,27.96,WNW,291,8.0,16.0,43,0.00,,,0.00,,2013-04-28 01:11:00,
2013-04-27 18:21:00,62.0,40.0,27.96,WNW,295,12.0,21.0,44,0.00,,,0.00,,2013-04-28 01:21:00,
2013-04-27 18:31:00,61.0,39.0,27.96,NW,310,12.0,18.0,44,0.00,,,0.00,,2013-04-28 01:31:00,
2013-04-27 18:41:00,61.0,39.0,27.96,NW,310,12.0,18.0,44,0.00,,,0.00,,2013-04-28 01:41:00,
2013-04-27 18:52:00,61.0,40.0,27.97,NW,308,9.0,16.0,45,0.00,,,0.00,,2013-04-28 01:52:00,
2013-04-27 19:01:00,61.0,40.0,27.98,WNW,295,6.0,15.0,46,0.00,,,0.00,,2013-04-28 02:01:00,
2013-04-27 19:12:00,61.0,40.0,27.98,WNW,295,6.0,15.0,46,0.00,,,0.00,,2013-04-28 02:12:00,
2013-04-27 19:21:00,59.0,39.0,27.98,NW,311,11.0,17.0,47,0.00,,,0.00,,2013-04-28 02:21:00,
2013-04-27 19:31:00,59.0,39.0,27.98,WNW,302,6.0,15.0,48,0.00,,,0.00,,2013-04-28 02:31:00,
2013-04-27 19:42:00,59.0,39.0,27.98,WNW,302,6.0,15.0,48,0.00,,,0.00,,2013-04-28 02:42:00,
2013-04-27 19:52:00,58.0,39.0,27.98,NW,305,9.0,13.0,50,0.00,,,0.00,,2013-04-28 02:52:00,
2013-04-27 20:01:00,58.0,40.0,27.99,WNW,289,9.0,14.0,51,0.00,,,0.00,,2013-04-28 03:01:00,
2013-04-27 20:11:00,58.0,40.0,27.99,WNW,289,9.0,14.0,51,0.00,,,0.00,,2013-04-28 03:11:00,
2013-04-27 20:21:00,57.0,40.0,27.99,NW,308,8.0,14.0,52,0.00,,,0.00,,2013-04-28 03:21:00,
2013-04-27 20:32:00,57.0,40.0,27.99,WNW,297,7.0,12.0,53,0.00,,,0.00,,2013-04-28 03:32:00,
2013-04-27 20:42:00,57.0,40.0,27.99,WNW,297,7.0,12.0,53,0.00,,,0.00,,2013-04-28 03:42:00,
2013-04-27 20:53:00,57.0,40.0,27.99,WNW,293,6.0,15.0,53,0.00,,,0.00,,2013-04-28 03:53:00,
2013-04-27 21:02:00,56.0,39.0,28.00,WNW,299,7.0,14.0,53,0.00,,,0.00,,2013-04-28 04:02:00,
2013-04-27 21:13:00,56.0,39.0,28.00,WNW,299,7.0,14.0,53,0.00,,,0.00,,2013-04-28 04:13:00,
2013-04-27 21:22:00,56.0,40.0,28.00,NW,308,8.0,12.0,54,0.00,,,0.00,,2013-04-28 04:22:00,
2013-04-27 21:32:00,56.0,40.0,28.01,West,281,6.0,11.0,55,0.00,,,0.00,,2013-04-28 04:32:00,
2013-04-27 21:42:00,56.0,40.0,28.01,West,281,6.0,11.0,55,0.00,,,0.00,,2013-04-28 04:42:00,
2013-04-27 21:52:00,55.0,40.0,28.02,NW,325,4.0,7.0,56,0.00,,,0.00,,2013-04-28 04:52:00,
2013-04-27 22:02:00,54.0,40.0,28.02,NW,321,2.0,4.0,59,0.00,,,0.00,,2013-04-28 05:02:00,
2013-04-27 22:12:00,54.0,40.0,28.02,NW,321,2.0,4.0,59,0.00,,,0.00,,2013-04-28 05:12:00,
2013-04-27 22:22:00,53.0,40.0,28.02,NW,319,3.0,5.0,61,0.00,,,0.00,,2013-04-28 05:22:00,
2013-04-27 22:32:00,53.0,40.0,28.03,NW,304,2.0,7.0,61,0.00,,,0.00,,2013-04-28 05:32:00,
2013-04-27 22:42:00,53.0,40.0,28.03,NW,304,2.0,7.0,61,0.00,,,0.00,,2013-04-28 05:42:00,
2013-04-27 22:52:00,53.0,40.0,28.03,NW,319,2.0,4.0,62,0.00,,,0.00,,2013-04-28 05:52:00,
2013-04-27 23:01:00,53.0,40.0,28.03,WNW,303,3.0,6.0,61,0.00,,,0.00,,2013-04-28 06:01:00,
2013-04-27 23:12:00,53.0,40.0,28.03,WNW,303,3.0,6.0,61,0.00,,,0.00,,2013-04-28 06:12:00,
2013-04-27 23:21:00,54.0,40.0,28.03,NW,311,4.0,8.0,59,0.00,,,0.00,,2013-04-28 06:21:00,
2013-04-27 23:32:00,54.0,40.0,28.03,WNW,300,4.0,9.0,59,0.00,,,0.00,,2013-04-28 06:32:00,
2013-04-27 23:42:00,54.0,40.0,28.03,WNW,300,4.0,9.0,59,0.00,,,0.00,,2013-04-28 06:42:00,
2013-04-27 23:51:00,53.0,40.0,28.03,NW,305,2.0,6.0,61,0.00,,,0.00,,2013-04-28 06:51:00,